Time;durP1;ratioP1;P1;durP2;ratioP2;P2;SDS_P1;SDS_P2;PMS_P1;PMS_P2;Temp;Humidity;BMP_temperature;BMP_pressure;BME280_temperature;BME280_humidity;BME280_pressure;Samples;Min_cycle;Max_cycle;Signal;HPM_P1;HPM_P2
2020/12/22 00:00:53;;;;;;;;;;;27.20;42.30;;;;;;5032598;28;19998;-66
2020/12/22 00:03:18;;;;;;;;;;;27.20;42.30;;;;;;5032635;28;20035;-67
2020/12/22 00:05:44;;;;;;;;;;;27.20;42.30;;;;;;5032018;28;20674;-66
2020/12/22 00:08:10;;;;;;;;;;;27.20;42.20;;;;;;5032272;28;19917;-67
2020/12/22 00:10:36;;;;;;;;;;;27.20;42.30;;;;;;5032438;28;19913;-66
2020/12/22 00:13:01;;;;;;;;;;;27.20;42.20;;;;;;5032982;28;20375;-66
2020/12/22 00:15:27;;;;;;;;;;;27.20;42.20;;;;;;5036146;28;20012;-66
2020/12/22 00:17:52;;;;;;;;;;;27.20;42.20;;;;;;5036269;28;20341;-66
2020/12/22 00:20:18;;;;;;;;;;;27.20;42.20;;;;;;5035844;28;19913;-67
2020/12/22 00:22:45;;;;;;;;;;;27.20;42.20;;;;;;5035777;28;19921;-66
2020/12/22 00:25:11;;;;;;;;;;;27.20;42.20;;;;;;5035866;28;20382;-66
2020/12/22 00:27:36;;;;;;;;;;;27.20;42.20;;;;;;5036105;28;19967;-66
2020/12/22 00:30:02;;;;;;;;;;;27.20;42.20;;;;;;5034742;28;19971;-66
2020/12/22 00:32:28;;;;;;;;;;;27.20;42.20;;;;;;5035649;28;20343;-66
2020/12/22 00:34:53;;;;;;;;;;;27.20;42.20;;;;;;5035646;28;19948;-66
2020/12/22 00:37:19;;;;;;;;;;;27.20;42.20;;;;;;5035829;28;20000;-66
2020/12/22 00:39:44;;;;;;;;;;;27.20;42.10;;;;;;5035509;28;19920;-67
2020/12/22 00:42:10;;;;;;;;;;;27.20;42.10;;;;;;5035571;28;19924;-67
2020/12/22 00:44:35;;;;;;;;;;;27.20;42.10;;;;;;5035511;28;20425;-66
2020/12/22 00:47:00;;;;;;;;;;;27.20;42.10;;;;;;5035358;28;19920;-66
2020/12/22 00:49:26;;;;;;;;;;;27.20;42.10;;;;;;5035373;28;20010;-66
2020/12/22 00:51:51;;;;;;;;;;;27.20;42.10;;;;;;5035517;28;19932;-66
2020/12/22 00:54:17;;;;;;;;;;;27.20;42.10;;;;;;5035476;28;19909;-63
2020/12/22 20:28:30;;;;;;;;;;;22.80;65.00;;;;;;5105919;27;19916;-57
2020/12/22 20:30:56;;;;;;;;;;;23.70;57.00;;;;;;5091740;28;19919;-60
2020/12/22 20:33:21;;;;;;;;;;;25.50;52.70;;;;;;5092353;28;19946;-63
2020/12/22 20:35:47;;;;;;;;;;;27.10;48.90;;;;;;5090643;28;20370;-62
2020/12/22 20:38:12;;;;;;;;;;;28.30;43.50;;;;;;5090390;28;20330;-61
2020/12/22 20:40:38;;;;;;;;;;;29.10;40.20;;;;;;5094864;28;19939;-57
2020/12/22 20:43:03;;;;;;;;;;;29.50;40.10;;;;;;5101605;28;20037;-56
2020/12/22 20:45:29;;;;;;;;;;;29.90;38.80;;;;;;5090153;28;19912;-56
2020/12/22 20:47:54;;;;;;;;;;;30.10;38.60;;;;;;5090089;28;19912;-62
2020/12/22 20:50:20;;;;;;;;;;;30.20;38.30;;;;;;5089896;28;19961;-62
2020/12/22 20:52:45;;;;;;;;;;;30.20;38.50;;;;;;5085703;28;19913;-61
2020/12/22 20:55:11;;;;;;;;;;;30.10;38.80;;;;;;5096989;28;20390;-61
2020/12/22 20:57:36;;;;;;;;;;;29.90;39.80;;;;;;5095285;28;20423;-61
2020/12/22 21:00:05;;;;;;;;;;;29.80;39.80;;;;;;5100936;28;20135;-61
2020/12/22 21:02:30;;;;;;;;;;;29.80;39.80;;;;;;5091019;28;20507;-60
2020/12/22 21:04:56;;;;;;;;;;;29.70;39.90;;;;;;5101187;28;19987;-60
2020/12/22 21:07:21;;;;;;;;;;;29.70;40.00;;;;;;5089847;28;20381;-59
2020/12/22 21:09:47;;;;;;;;;;;29.60;40.00;;;;;;5102690;28;20347;-59
2020/12/22 21:12:12;;;;;;;;;;;29.50;40.30;;;;;;5100224;28;19932;-59
2020/12/22 21:14:38;;;;;;;;;;;29.50;40.40;;;;;;5105523;28;20278;-61
2020/12/22 21:17:04;;;;;;;;;;;29.50;40.40;;;;;;5089436;28;19921;-59
2020/12/22 21:19:29;;;;;;;;;;;29.50;40.40;;;;;;5089642;28;20338;-59
2020/12/22 21:21:58;;;;;;;;;;;29.50;40.50;;;;;;5089349;28;19951;-59
2020/12/22 21:24:23;;;;;;;;;;;29.40;40.50;;;;;;5089316;28;20369;-62
2020/12/22 21:26:49;;;;;;;;;;;29.40;40.70;;;;;;5089247;28;20003;-62
2020/12/22 21:29:15;;;;;;;;;;;29.40;40.70;;;;;;5090312;28;20330;-61
2020/12/22 21:31:40;;;;;;;;;;;29.30;40.80;;;;;;5094720;28;20040;-61
2020/12/22 21:34:06;;;;;;;;;;;29.30;40.80;;;;;;5109561;28;19908;-62
2020/12/22 21:36:31;;;;;;;;;;;29.30;40.90;;;;;;5109717;28;19941;-61
2020/12/22 21:38:57;;;;;;;;;;;29.30;40.90;;;;;;5096727;28;20421;-61
2020/12/22 21:41:22;;;;;;;;;;;29.30;41.00;;;;;;5082895;28;19916;-62
2020/12/22 21:43:48;;;;;;;;;;;29.20;41.00;;;;;;5095959;28;19908;-61
2020/12/22 21:46:20;;;;;;;;;;;29.20;41.20;;;;;;5095754;28;20282;-61
2020/12/22 21:48:45;;;;;;;;;;;29.20;41.20;;;;;;5095844;28;19912;-59
2020/12/22 21:51:11;;;;;;;;;;;29.10;41.20;;;;;;5095894;28;19919;-62
2020/12/22 21:53:36;;;;;;;;;;;29.10;41.20;;;;;;5095974;28;20385;-62
2020/12/22 21:56:02;;;;;;;;;;;29.10;41.20;;;;;;5089031;28;20379;-62
2020/12/22 21:58:27;;;;;;;;;;;29.10;41.20;;;;;;5075342;28;19948;-62
2020/12/22 22:00:53;;;;;;;;;;;29.10;41.30;;;;;;5075505;28;20270;-59
2020/12/22 22:03:18;;;;;;;;;;;29.10;41.40;;;;;;5075344;28;19962;-61
2020/12/22 22:05:44;;;;;;;;;;;29.10;41.50;;;;;;5075371;28;20274;-62
2020/12/22 22:08:09;;;;;;;;;;;29.10;41.40;;;;;;5076304;28;19916;-61
2020/12/22 22:10:35;;;;;;;;;;;29.00;41.50;;;;;;5075112;28;20019;-61
2020/12/22 22:13:00;;;;;;;;;;;29.00;41.50;;;;;;5075002;28;19913;-62
2020/12/22 22:15:26;;;;;;;;;;;29.00;41.60;;;;;;5075262;28;19912;-59
2020/12/22 22:17:52;;;;;;;;;;;29.00;41.60;;;;;;5074994;28;19923;-62
2020/12/22 22:20:17;;;;;;;;;;;28.90;41.50;;;;;;5075123;28;20282;-62
2020/12/22 22:22:43;;;;;;;;;;;29.00;41.50;;;;;;5082981;28;19912;-62
2020/12/22 22:25:08;;;;;;;;;;;28.90;41.50;;;;;;5095281;28;19908;-61
2020/12/22 22:27:34;;;;;;;;;;;28.90;41.50;;;;;;5094857;28;20298;-62
2020/12/22 22:29:59;;;;;;;;;;;28.90;41.60;;;;;;5095071;28;20684;-62
2020/12/22 22:32:25;;;;;;;;;;;28.90;41.60;;;;;;5094823;28;19908;-62
2020/12/22 22:34:50;;;;;;;;;;;28.90;41.60;;;;;;5094925;28;19908;-61
2020/12/22 22:37:16;;;;;;;;;;;28.90;41.60;;;;;;5086328;28;19982;-61
2020/12/22 22:39:41;;;;;;;;;;;28.90;41.60;;;;;;5074405;28;19912;-61
2020/12/22 22:42:07;;;;;;;;;;;28.90;41.60;;;;;;5074525;28;19912;-61
2020/12/22 22:44:33;;;;;;;;;;;28.90;41.70;;;;;;5074321;28;19991;-61
2020/12/22 22:46:58;;;;;;;;;;;28.90;41.60;;;;;;5074492;28;19912;-61
2020/12/22 22:49:24;;;;;;;;;;;28.80;41.60;;;;;;5074146;28;19914;-61
2020/12/22 22:51:50;;;;;;;;;;;28.90;41.70;;;;;;5073646;28;20369;-61
2020/12/22 22:54:15;;;;;;;;;;;28.80;41.70;;;;;;5074099;28;19909;-61
2020/12/22 22:56:41;;;;;;;;;;;28.80;41.70;;;;;;5074346;28;19924;-61
2020/12/22 22:59:06;;;;;;;;;;;28.80;41.70;;;;;;5073933;28;20427;-61
2020/12/22 23:01:35;;;;;;;;;;;28.80;41.70;;;;;;5090296;28;19923;-61
2020/12/22 23:04:01;;;;;;;;;;;28.80;41.70;;;;;;5094550;28;19908;-61
2020/12/22 23:06:26;;;;;;;;;;;28.80;41.70;;;;;;5094544;28;19908;-61
2020/12/22 23:08:52;;;;;;;;;;;28.80;41.70;;;;;;5094152;28;19916;-61
2020/12/22 23:11:17;;;;;;;;;;;28.80;41.80;;;;;;5094403;28;19954;-61
2020/12/22 23:13:43;;;;;;;;;;;28.80;41.70;;;;;;5094349;28;20269;-61
2020/12/22 23:16:08;;;;;;;;;;;28.70;41.60;;;;;;5078975;28;19913;-61
2020/12/22 23:18:34;;;;;;;;;;;28.70;41.70;;;;;;5073884;28;19951;-61
2020/12/22 23:20:59;;;;;;;;;;;28.70;41.80;;;;;;5074021;28;19908;-61
2020/12/22 23:23:25;;;;;;;;;;;28.80;41.80;;;;;;5076232;28;19927;-61
2020/12/22 23:25:52;;;;;;;;;;;28.70;41.70;;;;;;5073666;28;19924;-61
2020/12/22 23:28:17;;;;;;;;;;;28.70;42.10;;;;;;5073408;28;19924;-61
2020/12/22 23:30:43;;;;;;;;;;;28.70;41.90;;;;;;5073720;28;20313;-61
2020/12/22 23:33:08;;;;;;;;;;;28.70;41.70;;;;;;5073809;28;19908;-61
2020/12/22 23:35:34;;;;;;;;;;;28.70;42.00;;;;;;5073591;28;20282;-61
2020/12/22 23:37:59;;;;;;;;;;;28.70;41.70;;;;;;5076802;28;19924;-61
2020/12/22 23:40:25;;;;;;;;;;;28.70;41.70;;;;;;5076726;28;19939;-61
2020/12/22 23:42:50;;;;;;;;;;;28.70;41.60;;;;;;5073253;28;19999;-61
2020/12/22 23:45:16;;;;;;;;;;;28.80;41.60;;;;;;5073524;28;19915;-61
2020/12/22 23:47:41;;;;;;;;;;;28.70;41.60;;;;;;5088175;28;20329;-61
2020/12/22 23:50:07;;;;;;;;;;;28.70;41.60;;;;;;5093736;28;19999;-61
2020/12/22 23:52:41;;;;;;;;;;;28.70;41.60;;;;;;5093641;28;19912;-61
2020/12/22 23:55:07;;;;;;;;;;;28.70;41.70;;;;;;5093263;28;20350;-61
2020/12/22 23:57:33;;;;;;;;;;;28.70;41.70;;;;;;5093438;28;19927;-61
2020/12/22 23:59:58;;;;;;;;;;;28.60;41.70;;;;;;5093287;28;20295;-61
